Spriggs Payne Airport

Jump to: basic info | weather | frequencies | runways | comments

Related pages: nearby airports | nearby navaids | notams | map

Basic information (top)

Codes: MLW GLMR
Location: lon 6.289060, lat -10.758700, elev 25 ft / 8 m msl
Status: medium_airport
Scheduled airline service: yes
Links: Wikipedia Mobile

Weather (top)

Current conditions for Roberts International Airport 24nm (44km) E (rec'd 2014/08/21 23:30Z):

GLRB 212330Z 20008KT 9999 BKN012 25/22 Q1016 NOSIG

Airport forecast for Roberts International Airport 24nm (44km) E (rec'd 2014/08/21 18:54Z):

TAF GLRB 211600Z 2118/2224 20008KT 6000 BKN011 
     FM211900 20006KT 5000 RA/RADZ SCT004 BKN010 FEW022CB 
      TEMPO 2201/2205 VRB03KT 8000 BKN012 FEW020CB

Frequencies (top)

Verify before use: may be inaccurate or out of date.

APP: 124.5 MHz (ROBERTS APP)
TWR: 118.7 MHz (SPRIGGS TWR)

Runways (top)

05/23: 6,000 x 100 ft (1,829 x 30 m) — paved — lighted — threshold 05 displaced 200 ft (61 m) — threshold 23 displaced 200 ft (61 m)

Latest comments (top)

No comments yet for Spriggs Payne Airport

More... (top)

See also NOTAMs and nearby airports and navaids, or visit the Spriggs Payne Airport page at the main OurAirports website..